Weather observations for the past three days for
Miami, Kendall-Tamiami Executive Airport
Imperial (Metric)
Date Time (edt) Wind (mph) Vis. (mi.) Weather Sky Cond. Temperature (ºF) Relative Humidity Wind Chill (°F) Heat Index (°F) Pressure Precipitation (in)
Air Dwpt 6 hour altimeter (in) sea level (mb) 1 hr 3 hr 6 hr
Max. Min.
08 05:53 W 3 2.50 Fog/Mist CLR 66.9 66.9 100% 29.95 1014.2
08 04:53 W 5 10.00 Fair CLR 69.1 68 96% 29.95 1014.2
08 03:53 Calm 8.00 Fair CLR 69.1 69.1 100% 29.95 1014.1
08 02:53 Calm 8.00 Fair CLR 70 69.1 97% 29.95 1014.0
08 01:53 W 5 10.00 Fair CLR 71.1 71.1 84.9 71.1 100% 29.96 1014.6
08 00:53 SW 5 10.00 Fair CLR 75 71.1 88% 75 29.97 1014.8
07 23:53 SW 3 10.00 Fair CLR 75 71.1 88% 75 29.98 1015.0
07 22:53 W 8 10.00 Fair CLR 75.9 70 82% 77 29.97 1014.9
07 21:53 W 6 10.00 Fair CLR 79 68 69% 81 29.96 1014.6
07 20:53 W 3 10.00 Fair CLR 81 61 51% 82 29.95 1014.1
07 19:53 W 6 10.00 Fair CLR 84 62.1 93 84 48% 85 29.94 1013.7
07 18:53 S 10 10.00 Fair CLR 88 71.1 57% 94 29.93 1013.3
07 17:53 S 10 G 20 10.00 Fair CLR 90 70 52% 95 29.92 1013.1
07 16:53 SE 14 10.00 Fair CLR 90 71.1 54% 96 29.93 1013.3
07 15:53 SE 14 10.00 Fair CLR 91 72 54% 99 29.94 1013.8
07 14:53 SE 13 10.00 A Few Clouds FEW046 FEW060 91 72 54% 99 29.96 1014.5
07 13:53 NW 10 10.00 Fair CLR 93.9 64.9 93.9 73 38% 96 29.98 1015.3
07 12:53 S 7 10.00 Fair CLR 91 62.1 38% 92 30 1015.9
07 11:53 Vrbl 3 10.00 Fair CLR 87.1 66 50% 89 30.02 1016.6
07 10:53 Vrbl 5 10.00 Fair CLR 84.9 69.1 59% 89 30.04 1017.1
07 09:53 S 5 10.00 Fair CLR 82 71.1 69% 86 30.04 1017.0
07 08:53 Calm 10.00 Fair CLR 79 73.9 85% 83 30.03 1016.9
07 07:53 W 5 10.00 Fair CLR 73 73 73.9 66.9 100% 30.02 1016.4
07 06:53 Calm 10.00 Fair CLR 66.9 66.9 100% 29.99 1015.6
07 05:53 Calm 10.00 Fair CLR 66.9 66.9 100% 29.97 1014.9
07 04:53 Calm 10.00 Fair CLR 68 66.9 96% 29.97 1014.9
07 03:53 Calm 10.00 Fair CLR 72 69.1 91% 29.98 1015.0
07 02:53 Calm 10.00 Fair CLR 73.9 69.1 85% 29.98 1015.2
07 01:53 Calm 10.00 Fair CLR 73.9 69.1 80.1 73.9 85% 30 1015.9
07 00:53 SE 5 10.00 Fair CLR 75 68 79% 76 30.01 1016.1
06 23:53 E 5 10.00 Fair CLR 75 69.1 82% 75 30.03 1016.7
06 22:53 E 6 10.00 Fair CLR 75.9 71.1 85% 76 30.03 1016.6
06 21:53 E 9 10.00 Fair CLR 75.9 71.1 85% 76 30.02 1016.6
06 20:53 E 8 10.00 Mostly Cloudy BKN060 78.1 72 82% 80 30.03 1016.7
06 18:53 SE 10 10.00 Fair CLR 82 72 72% 87 30.01 1016.0
06 17:53 SE 12 10.00 Fair CLR 84 72 67% 90 29.99 1015.5
06 16:53 E 10 10.00 Fair CLR 88 68 52% 92 29.98 1015.1
06 15:53 SE 10 10.00 Fair CLR 88 69.1 54% 92 29.99 1015.6
06 14:53 SE 10 10.00 Fair CLR 88 70 55% 93 30.01 1016.1
06 13:53 E 10 G 18 10.00 Fair CLR 88 68 89.1 77 52% 92 30.02 1016.4
06 12:53 E 9 10.00 A Few Clouds FEW038 86 71.1 61% 92 30.03 1017.0
06 11:53 E 7 10.00 A Few Clouds FEW032 FEW055 84.9 72 65% 91 30.04 1017.2
06 10:53 S 7 10.00 Mostly Cloudy SCT027 BKN040 82.9 73 72% 89 30.03 1016.9
06 09:53 SE 7 10.00 Partly Cloudy FEW021 SCT038 SCT045 82 73 74% 87 30.03 1016.7
06 08:53 S 3 10.00 Partly Cloudy SCT018 80.1 75.9 87% 85 30.03 1016.6
06 07:53 E 3 10.00 Fair CLR 77 75.9 77 71.1 96% 78 30.02 1016.4
06 06:53 E 3 10.00 A Few Clouds FEW024 73.9 73 97% 30 1015.7
06 05:53 Calm 10.00 Fair CLR 72 71.1 97% 29.99 1015.6
06 04:53 NE 3 10.00 Fair CLR 72 71.1 97% 29.98 1015.2
06 03:53 E 5 10.00 Fair CLR 73 72 96% 29.98 1015.0
06 02:53 E 7 10.00 Fair CLR 73.9 72 94% 29.98 1015.0
06 01:53 E 7 10.00 Fair CLR 75 72 79 75 90% 74 29.99 1015.4
06 00:53 E 7 10.00 Fair CLR 75.9 72 88% 76 30 1015.8
05 23:53 E 8 10.00 Fair CLR 75.9 72 88% 76 30.01 1016.0
05 22:53 E 10 10.00 Fair CLR 77 72 85% 78 30 1015.7
05 21:53 E 13 10.00 A Few Clouds FEW048 78.1 72 82% 80 29.98 1015.1
05 20:53 E 15 10.00 A Few Clouds FEW050 78.1 72 82% 80 29.97 1014.7
05 19:53 E 13 10.00 Fair CLR 79 72 89.1 79 79% 82 29.95 1014.2
05 18:53 E 15 10.00 Fair CLR 81 71.1 72% 85 29.93 1013.6
05 17:53 E 13 10.00 Fair CLR 84 70 63% 88 29.93 1013.4
05 16:53 SE 10 10.00 Fair CLR 84.9 71.1 63% 90 29.92 1013.2
05 15:53 SE 10 10.00 Mostly Cloudy FEW040 FEW080 BKN095 84.9 70 61% 89 29.94 1013.6
05 14:53 E 14 G 21 10.00 A Few Clouds FEW060 FEW080 86 72 63% 92 29.94 1013.8
05 13:53 SE 9 10.00 Fair CLR 87.1 72 90 75.9 61% 94 29.95 1014.2
05 12:53 Calm 10.00 Partly Cloudy SCT020 89.1 63 42% 90 29.96 1014.5
05 11:53 Calm 10.00 Fair CLR 87.1 64.9 48% 89 29.97 1014.8
05 10:53 Calm 10.00 Partly Cloudy SCT036 84 69.1 61% 88 29.98 1015.1
05 09:53 Vrbl 3 10.00 A Few Clouds FEW024 82 72 72% 87 29.97 1014.9
05 08:53 NE 5 10.00 Fair CLR 79 73.9 85% 83 29.96 1014.4
05 07:53 NE 5 10.00 Fair CLR 75.9 73.9 75.9 71.1 94% 75 29.95 1014.1
05 06:53 N 3 10.00 Partly Cloudy SCT075 73 72 96% 29.94 1013.7
Date Time (edt) Wind (mph) Vis. (mi.) Weather Sky Cond. Air Dwpt Max. Min. Relative Humidity Wind Chill (°F) Heat Index (°F) altimeter (in) sea level (mb) 1 hr 3 hr 6 hr
6 hour
Temperature (ºF) Pressure Precipitation (in)